sensor_id;sensor_type;location;lat;lon;timestamp;P1;durP1;ratioP1;P2;durP2;ratioP2
60026;SDS011;45891;53.006;6.512;2022-09-03T00:01:40;9.70;;;1.40;;
60026;SDS011;45891;53.006;6.512;2022-09-03T00:04:17;6.57;;;1.15;;
60026;SDS011;45891;53.006;6.512;2022-09-03T00:06:51;5.80;;;1.10;;
60026;SDS011;45891;53.006;6.512;2022-09-03T00:09:27;5.72;;;1.15;;
60026;SDS011;45891;53.006;6.512;2022-09-03T00:12:08;4.63;;;1.10;;
60026;SDS011;45891;53.006;6.512;2022-09-03T00:14:40;8.10;;;1.20;;
60026;SDS011;45891;53.006;6.512;2022-09-03T00:17:16;6.85;;;1.30;;
60026;SDS011;45891;53.006;6.512;2022-09-03T00:19:46;8.68;;;1.20;;
60026;SDS011;45891;53.006;6.512;2022-09-03T00:22:30;4.70;;;1.17;;
60026;SDS011;45891;53.006;6.512;2022-09-03T00:25:01;7.55;;;1.40;;
60026;SDS011;45891;53.006;6.512;2022-09-03T00:27:31;4.97;;;1.10;;
60026;SDS011;45891;53.006;6.512;2022-09-03T00:30:05;8.03;;;1.10;;
60026;SDS011;45891;53.006;6.512;2022-09-03T00:35:28;5.10;;;1.13;;
60026;SDS011;45891;53.006;6.512;2022-09-03T00:37:58;6.43;;;1.20;;
60026;SDS011;45891;53.006;6.512;2022-09-03T00:40:37;6.00;;;1.08;;
60026;SDS011;45891;53.006;6.512;2022-09-03T00:43:10;7.55;;;1.20;;
60026;SDS011;45891;53.006;6.512;2022-09-03T00:51:32;5.75;;;1.23;;
60026;SDS011;45891;53.006;6.512;2022-09-03T01:02:26;6.25;;;1.00;;
60026;SDS011;45891;53.006;6.512;2022-09-03T01:07:57;5.45;;;1.00;;
60026;SDS011;45891;53.006;6.512;2022-09-03T01:10:35;5.35;;;0.90;;
60026;SDS011;45891;53.006;6.512;2022-09-03T01:21:58;9.30;;;1.17;;
60026;SDS011;45891;53.006;6.512;2022-09-03T01:24:54;8.60;;;1.20;;
60026;SDS011;45891;53.006;6.512;2022-09-03T01:30:36;6.32;;;1.10;;
60026;SDS011;45891;53.006;6.512;2022-09-03T01:33:08;4.72;;;1.00;;
60026;SDS011;45891;53.006;6.512;2022-09-03T01:36:28;4.90;;;1.10;;
60026;SDS011;45891;53.006;6.512;2022-09-03T01:38:48;5.28;;;1.08;;
60026;SDS011;45891;53.006;6.512;2022-09-03T01:46:45;8.20;;;0.95;;
60026;SDS011;45891;53.006;6.512;2022-09-03T01:49:23;6.68;;;1.10;;
60026;SDS011;45891;53.006;6.512;2022-09-03T01:52:02;4.78;;;1.00;;
60026;SDS011;45891;53.006;6.512;2022-09-03T01:54:50;4.30;;;1.10;;
60026;SDS011;45891;53.006;6.512;2022-09-03T01:57:48;6.15;;;1.00;;
60026;SDS011;45891;53.006;6.512;2022-09-03T02:00:20;5.15;;;1.02;;
60026;SDS011;45891;53.006;6.512;2022-09-03T02:02:49;6.00;;;1.10;;
60026;SDS011;45891;53.006;6.512;2022-09-03T02:08:05;6.32;;;1.00;;
60026;SDS011;45891;53.006;6.512;2022-09-03T02:13:20;5.28;;;0.90;;
60026;SDS011;45891;53.006;6.512;2022-09-03T02:15:49;8.07;;;1.10;;
60026;SDS011;45891;53.006;6.512;2022-09-03T02:20:51;5.93;;;1.00;;
60026;SDS011;45891;53.006;6.512;2022-09-03T02:23:18;4.53;;;0.80;;
60026;SDS011;45891;53.006;6.512;2022-09-03T02:25:49;5.03;;;1.00;;
60026;SDS011;45891;53.006;6.512;2022-09-03T02:28:19;6.05;;;1.10;;
60026;SDS011;45891;53.006;6.512;2022-09-03T02:30:46;2.97;;;0.82;;
60026;SDS011;45891;53.006;6.512;2022-09-03T02:33:12;4.47;;;1.05;;
60026;SDS011;45891;53.006;6.512;2022-09-03T02:35:40;7.63;;;1.05;;
60026;SDS011;45891;53.006;6.512;2022-09-03T02:38:08;4.75;;;1.10;;
60026;SDS011;45891;53.006;6.512;2022-09-03T02:40:35;4.28;;;1.08;;
60026;SDS011;45891;53.006;6.512;2022-09-03T02:43:02;5.97;;;0.90;;
60026;SDS011;45891;53.006;6.512;2022-09-03T02:45:33;4.28;;;1.00;;
60026;SDS011;45891;53.006;6.512;2022-09-03T02:48:02;5.38;;;1.00;;
60026;SDS011;45891;53.006;6.512;2022-09-03T02:50:29;6.20;;;1.38;;
60026;SDS011;45891;53.006;6.512;2022-09-03T02:52:55;6.05;;;1.10;;
60026;SDS011;45891;53.006;6.512;2022-09-03T02:55:21;5.70;;;1.05;;
60026;SDS011;45891;53.006;6.512;2022-09-03T02:57:47;5.45;;;1.15;;
60026;SDS011;45891;53.006;6.512;2022-09-03T03:00:13;4.25;;;1.08;;
60026;SDS011;45891;53.006;6.512;2022-09-03T03:02:40;6.03;;;1.00;;
60026;SDS011;45891;53.006;6.512;2022-09-03T03:05:06;6.20;;;1.20;;
60026;SDS011;45891;53.006;6.512;2022-09-03T03:07:35;5.90;;;1.20;;
60026;SDS011;45891;53.006;6.512;2022-09-03T03:10:03;4.10;;;1.00;;
60026;SDS011;45891;53.006;6.512;2022-09-03T03:12:30;4.53;;;1.15;;
60026;SDS011;45891;53.006;6.512;2022-09-03T03:14:56;5.57;;;1.02;;
60026;SDS011;45891;53.006;6.512;2022-09-03T03:17:22;9.00;;;1.42;;
60026;SDS011;45891;53.006;6.512;2022-09-03T03:19:48;5.95;;;1.10;;
60026;SDS011;45891;53.006;6.512;2022-09-03T03:22:14;9.48;;;1.30;;
60026;SDS011;45891;53.006;6.512;2022-09-03T03:24:40;6.70;;;1.20;;
60026;SDS011;45891;53.006;6.512;2022-09-03T03:27:06;6.57;;;1.27;;
60026;SDS011;45891;53.006;6.512;2022-09-03T03:29:35;7.47;;;1.25;;
60026;SDS011;45891;53.006;6.512;2022-09-03T03:32:01;4.05;;;1.08;;
60026;SDS011;45891;53.006;6.512;2022-09-03T03:34:28;7.97;;;1.10;;
60026;SDS011;45891;53.006;6.512;2022-09-03T03:36:54;5.15;;;1.02;;
60026;SDS011;45891;53.006;6.512;2022-09-03T03:39:20;6.05;;;1.20;;
60026;SDS011;45891;53.006;6.512;2022-09-03T03:41:47;7.50;;;1.10;;
60026;SDS011;45891;53.006;6.512;2022-09-03T03:44:13;6.78;;;1.10;;
60026;SDS011;45891;53.006;6.512;2022-09-03T03:46:40;6.78;;;1.10;;
60026;SDS011;45891;53.006;6.512;2022-09-03T03:49:07;4.25;;;1.00;;
60026;SDS011;45891;53.006;6.512;2022-09-03T03:51:34;6.47;;;1.13;;
60026;SDS011;45891;53.006;6.512;2022-09-03T03:54:01;6.85;;;1.25;;
60026;SDS011;45891;53.006;6.512;2022-09-03T03:56:27;4.43;;;1.00;;
60026;SDS011;45891;53.006;6.512;2022-09-03T03:58:53;7.68;;;1.13;;
60026;SDS011;45891;53.006;6.512;2022-09-03T04:01:21;5.45;;;1.25;;
60026;SDS011;45891;53.006;6.512;2022-09-03T04:03:48;4.47;;;1.10;;
60026;SDS011;45891;53.006;6.512;2022-09-03T04:06:16;7.97;;;1.30;;
60026;SDS011;45891;53.006;6.512;2022-09-03T04:08:44;8.85;;;1.30;;
60026;SDS011;45891;53.006;6.512;2022-09-03T04:11:12;7.43;;;1.20;;
60026;SDS011;45891;53.006;6.512;2022-09-03T04:13:41;4.25;;;1.20;;
60026;SDS011;45891;53.006;6.512;2022-09-03T04:16:09;5.53;;;1.15;;
60026;SDS011;45891;53.006;6.512;2022-09-03T04:18:37;9.38;;;1.52;;
60026;SDS011;45891;53.006;6.512;2022-09-03T04:21:13;6.47;;;1.35;;
60026;SDS011;45891;53.006;6.512;2022-09-03T04:23:41;4.65;;;1.15;;
60026;SDS011;45891;53.006;6.512;2022-09-03T04:26:10;5.32;;;1.13;;
60026;SDS011;45891;53.006;6.512;2022-09-03T04:28:38;4.70;;;1.08;;
60026;SDS011;45891;53.006;6.512;2022-09-03T04:31:06;6.93;;;1.20;;
60026;SDS011;45891;53.006;6.512;2022-09-03T04:33:34;5.70;;;1.10;;
60026;SDS011;45891;53.006;6.512;2022-09-03T04:36:03;4.45;;;1.00;;
60026;SDS011;45891;53.006;6.512;2022-09-03T04:38:33;5.75;;;1.20;;
60026;SDS011;45891;53.006;6.512;2022-09-03T04:41:00;5.05;;;1.10;;
60026;SDS011;45891;53.006;6.512;2022-09-03T04:43:27;5.13;;;1.10;;
60026;SDS011;45891;53.006;6.512;2022-09-03T04:46:00;7.03;;;1.30;;
60026;SDS011;45891;53.006;6.512;2022-09-03T04:48:29;4.53;;;1.20;;
60026;SDS011;45891;53.006;6.512;2022-09-03T04:53:34;4.68;;;1.25;;
60026;SDS011;45891;53.006;6.512;2022-09-03T04:56:02;5.28;;;1.45;;
60026;SDS011;45891;53.006;6.512;2022-09-03T04:58:37;5.57;;;1.45;;
60026;SDS011;45891;53.006;6.512;2022-09-03T05:01:07;8.60;;;1.40;;
60026;SDS011;45891;53.006;6.512;2022-09-03T05:03:33;5.60;;;1.40;;
60026;SDS011;45891;53.006;6.512;2022-09-03T05:06:01;6.63;;;1.20;;
60026;SDS011;45891;53.006;6.512;2022-09-03T05:08:31;10.57;;;1.50;;
60026;SDS011;45891;53.006;6.512;2022-09-03T05:10:58;4.78;;;1.30;;
60026;SDS011;45891;53.006;6.512;2022-09-03T05:13:25;5.60;;;1.27;;
60026;SDS011;45891;53.006;6.512;2022-09-03T05:15:51;5.60;;;1.50;;
60026;SDS011;45891;53.006;6.512;2022-09-03T05:18:18;6.20;;;1.45;;
60026;SDS011;45891;53.006;6.512;2022-09-03T05:20:45;6.80;;;1.52;;
60026;SDS011;45891;53.006;6.512;2022-09-03T05:23:11;6.18;;;1.52;;
60026;SDS011;45891;53.006;6.512;2022-09-03T05:25:37;6.50;;;1.35;;
60026;SDS011;45891;53.006;6.512;2022-09-03T05:28:04;9.18;;;1.60;;
60026;SDS011;45891;53.006;6.512;2022-09-03T05:30:30;5.90;;;1.40;;
60026;SDS011;45891;53.006;6.512;2022-09-03T05:32:56;8.80;;;1.55;;
60026;SDS011;45891;53.006;6.512;2022-09-03T05:35:22;5.85;;;1.40;;
60026;SDS011;45891;53.006;6.512;2022-09-03T05:37:48;7.97;;;1.77;;
60026;SDS011;45891;53.006;6.512;2022-09-03T05:40:14;7.85;;;1.75;;
60026;SDS011;45891;53.006;6.512;2022-09-03T05:42:41;6.43;;;1.40;;
60026;SDS011;45891;53.006;6.512;2022-09-03T05:45:07;8.37;;;1.67;;
60026;SDS011;45891;53.006;6.512;2022-09-03T05:47:38;6.95;;;1.50;;
60026;SDS011;45891;53.006;6.512;2022-09-03T05:50:07;6.28;;;1.63;;
60026;SDS011;45891;53.006;6.512;2022-09-03T05:52:35;6.78;;;1.52;;
60026;SDS011;45891;53.006;6.512;2022-09-03T05:55:02;6.80;;;1.57;;
60026;SDS011;45891;53.006;6.512;2022-09-03T05:57:29;8.43;;;1.63;;
60026;SDS011;45891;53.006;6.512;2022-09-03T05:59:55;8.85;;;1.88;;
60026;SDS011;45891;53.006;6.512;2022-09-03T06:02:22;6.60;;;1.70;;
60026;SDS011;45891;53.006;6.512;2022-09-03T06:04:48;5.90;;;1.60;;
60026;SDS011;45891;53.006;6.512;2022-09-03T06:07:15;7.00;;;1.75;;
60026;SDS011;45891;53.006;6.512;2022-09-03T06:09:41;8.02;;;1.63;;
60026;SDS011;45891;53.006;6.512;2022-09-03T06:12:07;6.90;;;1.60;;
60026;SDS011;45891;53.006;6.512;2022-09-03T06:14:33;6.15;;;1.63;;
60026;SDS011;45891;53.006;6.512;2022-09-03T06:17:00;6.75;;;1.80;;
60026;SDS011;45891;53.006;6.512;2022-09-03T06:19:26;11.35;;;1.90;;
60026;SDS011;45891;53.006;6.512;2022-09-03T06:21:52;6.43;;;1.70;;
60026;SDS011;45891;53.006;6.512;2022-09-03T06:24:18;7.05;;;1.85;;
60026;SDS011;45891;53.006;6.512;2022-09-03T06:26:48;5.82;;;1.63;;
60026;SDS011;45891;53.006;6.512;2022-09-03T06:29:14;7.53;;;1.70;;
60026;SDS011;45891;53.006;6.512;2022-09-03T06:31:42;6.95;;;1.60;;
60026;SDS011;45891;53.006;6.512;2022-09-03T06:34:09;7.28;;;1.90;;
60026;SDS011;45891;53.006;6.512;2022-09-03T06:36:35;6.35;;;1.65;;
60026;SDS011;45891;53.006;6.512;2022-09-03T06:39:01;7.65;;;1.80;;
60026;SDS011;45891;53.006;6.512;2022-09-03T06:41:29;6.07;;;1.50;;
60026;SDS011;45891;53.006;6.512;2022-09-03T06:43:59;6.93;;;1.60;;
60026;SDS011;45891;53.006;6.512;2022-09-03T06:46:31;8.32;;;1.80;;
60026;SDS011;45891;53.006;6.512;2022-09-03T06:48:59;6.45;;;1.63;;
60026;SDS011;45891;53.006;6.512;2022-09-03T06:51:27;6.35;;;1.70;;
60026;SDS011;45891;53.006;6.512;2022-09-03T06:53:58;7.95;;;1.73;;
60026;SDS011;45891;53.006;6.512;2022-09-03T06:56:35;6.00;;;1.73;;
60026;SDS011;45891;53.006;6.512;2022-09-03T06:59:12;4.97;;;1.42;;
60026;SDS011;45891;53.006;6.512;2022-09-03T07:01:39;7.05;;;1.70;;
60026;SDS011;45891;53.006;6.512;2022-09-03T07:04:07;5.93;;;1.58;;
60026;SDS011;45891;53.006;6.512;2022-09-03T07:06:36;5.85;;;1.50;;
60026;SDS011;45891;53.006;6.512;2022-09-03T07:09:08;6.40;;;1.48;;
60026;SDS011;45891;53.006;6.512;2022-09-03T07:14:03;7.32;;;1.50;;
60026;SDS011;45891;53.006;6.512;2022-09-03T07:16:33;9.30;;;1.58;;
60026;SDS011;45891;53.006;6.512;2022-09-03T07:19:01;7.90;;;1.60;;
60026;SDS011;45891;53.006;6.512;2022-09-03T07:21:30;6.68;;;1.38;;
60026;SDS011;45891;53.006;6.512;2022-09-03T07:23:58;6.63;;;1.80;;
60026;SDS011;45891;53.006;6.512;2022-09-03T07:26:26;5.72;;;1.48;;
60026;SDS011;45891;53.006;6.512;2022-09-03T07:28:56;6.25;;;1.42;;
60026;SDS011;45891;53.006;6.512;2022-09-03T07:31:27;8.40;;;1.63;;
60026;SDS011;45891;53.006;6.512;2022-09-03T07:33:59;8.60;;;1.52;;
60026;SDS011;45891;53.006;6.512;2022-09-03T07:36:28;5.60;;;1.48;;
60026;SDS011;45891;53.006;6.512;2022-09-03T07:38:55;6.55;;;1.35;;
60026;SDS011;45891;53.006;6.512;2022-09-03T07:41:22;6.43;;;1.40;;
60026;SDS011;45891;53.006;6.512;2022-09-03T07:43:50;9.63;;;1.58;;
60026;SDS011;45891;53.006;6.512;2022-09-03T07:46:21;7.38;;;1.48;;
60026;SDS011;45891;53.006;6.512;2022-09-03T07:48:52;6.88;;;1.30;;
60026;SDS011;45891;53.006;6.512;2022-09-03T07:51:20;6.45;;;1.60;;
60026;SDS011;45891;53.006;6.512;2022-09-03T07:53:52;7.45;;;1.20;;
60026;SDS011;45891;53.006;6.512;2022-09-03T07:56:19;7.15;;;1.60;;
60026;SDS011;45891;53.006;6.512;2022-09-03T07:58:46;8.45;;;1.40;;
60026;SDS011;45891;53.006;6.512;2022-09-03T08:01:14;7.28;;;1.42;;
60026;SDS011;45891;53.006;6.512;2022-09-03T08:03:42;8.65;;;1.45;;
60026;SDS011;45891;53.006;6.512;2022-09-03T08:06:10;5.88;;;1.30;;
60026;SDS011;45891;53.006;6.512;2022-09-03T08:08:37;6.10;;;1.50;;
60026;SDS011;45891;53.006;6.512;2022-09-03T08:16:03;8.18;;;1.50;;
60026;SDS011;45891;53.006;6.512;2022-09-03T08:18:30;5.53;;;1.30;;
60026;SDS011;45891;53.006;6.512;2022-09-03T08:23:38;6.30;;;1.38;;
60026;SDS011;45891;53.006;6.512;2022-09-03T08:26:06;5.22;;;1.15;;
60026;SDS011;45891;53.006;6.512;2022-09-03T08:28:36;5.35;;;1.30;;
60026;SDS011;45891;53.006;6.512;2022-09-03T08:33:39;6.22;;;1.30;;
60026;SDS011;45891;53.006;6.512;2022-09-03T08:36:20;5.97;;;1.20;;
60026;SDS011;45891;53.006;6.512;2022-09-03T08:38:48;4.97;;;1.10;;
60026;SDS011;45891;53.006;6.512;2022-09-03T08:41:22;7.93;;;1.30;;
60026;SDS011;45891;53.006;6.512;2022-09-03T08:44:07;8.07;;;1.60;;
60026;SDS011;45891;53.006;6.512;2022-09-03T08:52:44;6.40;;;1.17;;
60026;SDS011;45891;53.006;6.512;2022-09-03T08:57:42;8.95;;;1.20;;
60026;SDS011;45891;53.006;6.512;2022-09-03T09:00:13;5.32;;;1.20;;
60026;SDS011;45891;53.006;6.512;2022-09-03T09:08:25;6.68;;;1.23;;
60026;SDS011;45891;53.006;6.512;2022-09-03T09:13:47;7.78;;;1.17;;
60026;SDS011;45891;53.006;6.512;2022-09-03T09:16:18;5.22;;;1.10;;
60026;SDS011;45891;53.006;6.512;2022-09-03T09:21:59;6.20;;;1.10;;
60026;SDS011;45891;53.006;6.512;2022-09-03T09:24:32;6.43;;;1.10;;
60026;SDS011;45891;53.006;6.512;2022-09-03T09:27:04;12.55;;;1.20;;
60026;SDS011;45891;53.006;6.512;2022-09-03T09:29:32;8.68;;;1.42;;
60026;SDS011;45891;53.006;6.512;2022-09-03T09:32:01;10.63;;;1.25;;
60026;SDS011;45891;53.006;6.512;2022-09-03T09:34:33;7.20;;;1.48;;
60026;SDS011;45891;53.006;6.512;2022-09-03T09:37:00;5.32;;;1.02;;
60026;SDS011;45891;53.006;6.512;2022-09-03T09:39:30;6.38;;;1.20;;
60026;SDS011;45891;53.006;6.512;2022-09-03T09:42:07;6.78;;;1.25;;
60026;SDS011;45891;53.006;6.512;2022-09-03T09:44:37;6.70;;;1.20;;
60026;SDS011;45891;53.006;6.512;2022-09-03T09:47:06;6.60;;;1.58;;
60026;SDS011;45891;53.006;6.512;2022-09-03T09:52:12;5.85;;;1.17;;
60026;SDS011;45891;53.006;6.512;2022-09-03T09:54:40;8.02;;;1.20;;
60026;SDS011;45891;53.006;6.512;2022-09-03T09:57:21;7.13;;;1.17;;
60026;SDS011;45891;53.006;6.512;2022-09-03T10:00:11;6.78;;;1.17;;
60026;SDS011;45891;53.006;6.512;2022-09-03T10:02:38;8.38;;;1.10;;
60026;SDS011;45891;53.006;6.512;2022-09-03T10:07:59;5.30;;;1.10;;
60026;SDS011;45891;53.006;6.512;2022-09-03T10:10:29;4.97;;;1.13;;
60026;SDS011;45891;53.006;6.512;2022-09-03T10:15:41;7.60;;;1.25;;
60026;SDS011;45891;53.006;6.512;2022-09-03T10:18:41;7.75;;;1.40;;
60026;SDS011;45891;53.006;6.512;2022-09-03T10:21:17;6.70;;;1.33;;
60026;SDS011;45891;53.006;6.512;2022-09-03T10:23:50;8.07;;;1.20;;
60026;SDS011;45891;53.006;6.512;2022-09-03T10:26:20;9.77;;;1.20;;
60026;SDS011;45891;53.006;6.512;2022-09-03T10:28:55;6.18;;;1.10;;
60026;SDS011;45891;53.006;6.512;2022-09-03T10:34:32;5.57;;;1.08;;
60026;SDS011;45891;53.006;6.512;2022-09-03T10:51:05;6.25;;;1.17;;
60026;SDS011;45891;53.006;6.512;2022-09-03T10:53:49;12.02;;;1.20;;
60026;SDS011;45891;53.006;6.512;2022-09-03T10:56:20;5.88;;;1.10;;
60026;SDS011;45891;53.006;6.512;2022-09-03T11:07:36;6.18;;;1.20;;
60026;SDS011;45891;53.006;6.512;2022-09-03T11:15:25;11.63;;;1.35;;
60026;SDS011;45891;53.006;6.512;2022-09-03T11:18:15;9.32;;;1.13;;
60026;SDS011;45891;53.006;6.512;2022-09-03T11:20:46;4.95;;;1.00;;
60026;SDS011;45891;53.006;6.512;2022-09-03T11:23:15;7.97;;;1.00;;
60026;SDS011;45891;53.006;6.512;2022-09-03T11:25:46;4.78;;;0.90;;
60026;SDS011;45891;53.006;6.512;2022-09-03T11:34:25;6.53;;;1.17;;
60026;SDS011;45891;53.006;6.512;2022-09-03T11:36:41;4.90;;;0.88;;
60026;SDS011;45891;53.006;6.512;2022-09-03T11:39:21;10.00;;;1.13;;
60026;SDS011;45891;53.006;6.512;2022-09-03T11:42:03;7.40;;;1.02;;
60026;SDS011;45891;53.006;6.512;2022-09-03T11:44:41;8.80;;;1.10;;
60026;SDS011;45891;53.006;6.512;2022-09-03T11:47:13;6.07;;;1.10;;
60026;SDS011;45891;53.006;6.512;2022-09-03T11:49:45;9.80;;;1.20;;
60026;SDS011;45891;53.006;6.512;2022-09-03T11:52:27;6.85;;;1.00;;
60026;SDS011;45891;53.006;6.512;2022-09-03T11:54:54;6.13;;;1.02;;
60026;SDS011;45891;53.006;6.512;2022-09-03T11:57:22;10.00;;;1.27;;
60026;SDS011;45891;53.006;6.512;2022-09-03T12:00:06;5.57;;;1.23;;
60026;SDS011;45891;53.006;6.512;2022-09-03T12:02:36;6.97;;;1.10;;
60026;SDS011;45891;53.006;6.512;2022-09-03T12:08:24;6.35;;;0.90;;
60026;SDS011;45891;53.006;6.512;2022-09-03T12:17:30;5.97;;;1.20;;
60026;SDS011;45891;53.006;6.512;2022-09-03T12:19:41;6.40;;;1.00;;
60026;SDS011;45891;53.006;6.512;2022-09-03T12:22:16;6.32;;;0.90;;
60026;SDS011;45891;53.006;6.512;2022-09-03T12:24:43;9.38;;;1.00;;
60026;SDS011;45891;53.006;6.512;2022-09-03T12:30:13;8.38;;;1.10;;
60026;SDS011;45891;53.006;6.512;2022-09-03T12:32:44;6.95;;;1.13;;
60026;SDS011;45891;53.006;6.512;2022-09-03T12:35:12;5.68;;;1.00;;
60026;SDS011;45891;53.006;6.512;2022-09-03T12:37:43;6.88;;;1.08;;
60026;SDS011;45891;53.006;6.512;2022-09-03T12:40:20;5.43;;;0.90;;
60026;SDS011;45891;53.006;6.512;2022-09-03T12:42:47;3.75;;;0.80;;
60026;SDS011;45891;53.006;6.512;2022-09-03T12:45:16;6.93;;;1.20;;
60026;SDS011;45891;53.006;6.512;2022-09-03T12:47:44;5.47;;;0.90;;
60026;SDS011;45891;53.006;6.512;2022-09-03T12:50:12;6.05;;;0.98;;
60026;SDS011;45891;53.006;6.512;2022-09-03T12:52:52;8.45;;;1.35;;
60026;SDS011;45891;53.006;6.512;2022-09-03T12:58:16;6.88;;;1.00;;
60026;SDS011;45891;53.006;6.512;2022-09-03T13:00:45;7.55;;;1.40;;
60026;SDS011;45891;53.006;6.512;2022-09-03T13:03:31;5.93;;;1.02;;
60026;SDS011;45891;53.006;6.512;2022-09-03T13:06:16;5.38;;;1.00;;
60026;SDS011;45891;53.006;6.512;2022-09-03T13:08:47;5.95;;;0.93;;
60026;SDS011;45891;53.006;6.512;2022-09-03T13:11:27;6.32;;;1.00;;
60026;SDS011;45891;53.006;6.512;2022-09-03T13:14:03;8.15;;;0.90;;
60026;SDS011;45891;53.006;6.512;2022-09-03T13:24:18;7.30;;;1.00;;
60026;SDS011;45891;53.006;6.512;2022-09-03T13:34:45;4.53;;;1.00;;
60026;SDS011;45891;53.006;6.512;2022-09-03T13:37:25;5.88;;;1.00;;
60026;SDS011;45891;53.006;6.512;2022-09-03T13:40:04;8.18;;;0.93;;
60026;SDS011;45891;53.006;6.512;2022-09-03T13:42:50;5.78;;;1.00;;
60026;SDS011;45891;53.006;6.512;2022-09-03T13:45:22;9.02;;;0.98;;
60026;SDS011;45891;53.006;6.512;2022-09-03T13:48:06;4.65;;;1.00;;
60026;SDS011;45891;53.006;6.512;2022-09-03T13:51:26;7.05;;;1.02;;
60026;SDS011;45891;53.006;6.512;2022-09-03T13:54:04;5.82;;;0.90;;
60026;SDS011;45891;53.006;6.512;2022-09-03T13:57:00;5.60;;;1.00;;
60026;SDS011;45891;53.006;6.512;2022-09-03T14:07:12;8.38;;;1.27;;
60026;SDS011;45891;53.006;6.512;2022-09-03T14:09:47;9.18;;;1.00;;
60026;SDS011;45891;53.006;6.512;2022-09-03T14:12:24;4.55;;;0.93;;
60026;SDS011;45891;53.006;6.512;2022-09-03T14:15:30;5.63;;;1.05;;
60026;SDS011;45891;53.006;6.512;2022-09-03T14:21:16;6.28;;;1.10;;
60026;SDS011;45891;53.006;6.512;2022-09-03T14:23:49;4.40;;;1.02;;
60026;SDS011;45891;53.006;6.512;2022-09-03T14:26:36;7.90;;;1.00;;
60026;SDS011;45891;53.006;6.512;2022-09-03T14:29:14;5.65;;;1.30;;
60026;SDS011;45891;53.006;6.512;2022-09-03T14:40:03;7.53;;;1.10;;
60026;SDS011;45891;53.006;6.512;2022-09-03T14:42:52;4.15;;;1.00;;
60026;SDS011;45891;53.006;6.512;2022-09-03T14:48:12;4.80;;;1.00;;
60026;SDS011;45891;53.006;6.512;2022-09-03T15:01:45;4.70;;;0.90;;
60026;SDS011;45891;53.006;6.512;2022-09-03T15:12:57;11.85;;;1.58;;
60026;SDS011;45891;53.006;6.512;2022-09-03T15:15:35;4.95;;;1.20;;
60026;SDS011;45891;53.006;6.512;2022-09-03T15:25:02;6.65;;;1.10;;
60026;SDS011;45891;53.006;6.512;2022-09-03T15:30:40;7.95;;;1.13;;
60026;SDS011;45891;53.006;6.512;2022-09-03T15:33:26;6.78;;;1.20;;
60026;SDS011;45891;53.006;6.512;2022-09-03T15:41:33;4.38;;;1.20;;
60026;SDS011;45891;53.006;6.512;2022-09-03T15:44:13;8.18;;;1.20;;
60026;SDS011;45891;53.006;6.512;2022-09-03T16:01:19;10.90;;;4.55;;
60026;SDS011;45891;53.006;6.512;2022-09-03T16:03:33;15.27;;;4.80;;
60026;SDS011;45891;53.006;6.512;2022-09-03T16:09:08;9.07;;;2.17;;
60026;SDS011;45891;53.006;6.512;2022-09-03T16:14:42;58.95;;;32.47;;
60026;SDS011;45891;53.006;6.512;2022-09-03T16:17:31;23.75;;;11.05;;
60026;SDS011;45891;53.006;6.512;2022-09-03T16:20:07;14.05;;;3.30;;
60026;SDS011;45891;53.006;6.512;2022-09-03T16:25:50;10.10;;;1.40;;
60026;SDS011;45891;53.006;6.512;2022-09-03T16:28:47;6.88;;;1.40;;
60026;SDS011;45891;53.006;6.512;2022-09-03T16:37:30;39.42;;;35.90;;
60026;SDS011;45891;53.006;6.512;2022-09-03T16:40:14;16.92;;;14.68;;
60026;SDS011;45891;53.006;6.512;2022-09-03T16:43:06;11.83;;;4.97;;
60026;SDS011;45891;53.006;6.512;2022-09-03T16:45:52;12.38;;;9.43;;
60026;SDS011;45891;53.006;6.512;2022-09-03T16:54:01;11.90;;;7.68;;
60026;SDS011;45891;53.006;6.512;2022-09-03T17:10:07;9.48;;;1.70;;
60026;SDS011;45891;53.006;6.512;2022-09-03T17:21:21;10.13;;;4.03;;
60026;SDS011;45891;53.006;6.512;2022-09-03T17:35:33;10.68;;;1.45;;
60026;SDS011;45891;53.006;6.512;2022-09-03T17:43:29;30.85;;;24.70;;
60026;SDS011;45891;53.006;6.512;2022-09-03T17:49:05;51.38;;;45.97;;
60026;SDS011;45891;53.006;6.512;2022-09-03T17:51:43;52.75;;;38.55;;
60026;SDS011;45891;53.006;6.512;2022-09-03T17:54:38;15.55;;;9.35;;
60026;SDS011;45891;53.006;6.512;2022-09-03T17:59:51;11.30;;;2.10;;
60026;SDS011;45891;53.006;6.512;2022-09-03T18:02:51;5.95;;;1.52;;
60026;SDS011;45891;53.006;6.512;2022-09-03T18:05:28;5.38;;;1.48;;
60026;SDS011;45891;53.006;6.512;2022-09-03T18:08:06;9.70;;;1.70;;
60026;SDS011;45891;53.006;6.512;2022-09-03T18:16:43;10.88;;;2.00;;
60026;SDS011;45891;53.006;6.512;2022-09-03T18:22:19;8.40;;;2.00;;
60026;SDS011;45891;53.006;6.512;2022-09-03T18:25:08;7.63;;;2.20;;
60026;SDS011;45891;53.006;6.512;2022-09-03T18:27:58;8.63;;;3.10;;
60026;SDS011;45891;53.006;6.512;2022-09-03T18:30:48;10.73;;;2.70;;
60026;SDS011;45891;53.006;6.512;2022-09-03T18:33:32;8.57;;;2.20;;
60026;SDS011;45891;53.006;6.512;2022-09-03T18:36:17;10.80;;;2.10;;
60026;SDS011;45891;53.006;6.512;2022-09-03T18:48:04;12.75;;;7.38;;
60026;SDS011;45891;53.006;6.512;2022-09-03T18:51:12;14.68;;;7.13;;
60026;SDS011;45891;53.006;6.512;2022-09-03T18:57:19;13.05;;;6.35;;
60026;SDS011;45891;53.006;6.512;2022-09-03T19:00:21;14.98;;;4.13;;
60026;SDS011;45891;53.006;6.512;2022-09-03T19:20:56;9.77;;;1.98;;
60026;SDS011;45891;53.006;6.512;2022-09-03T19:23:49;11.65;;;1.95;;
60026;SDS011;45891;53.006;6.512;2022-09-03T19:26:43;11.32;;;2.97;;
60026;SDS011;45891;53.006;6.512;2022-09-03T19:32:41;11.73;;;5.80;;
60026;SDS011;45891;53.006;6.512;2022-09-03T19:35:33;8.65;;;3.00;;
60026;SDS011;45891;53.006;6.512;2022-09-03T19:38:39;16.55;;;7.32;;
60026;SDS011;45891;53.006;6.512;2022-09-03T19:41:46;13.60;;;4.15;;
60026;SDS011;45891;53.006;6.512;2022-09-03T19:45:06;8.32;;;2.40;;
60026;SDS011;45891;53.006;6.512;2022-09-03T19:48:34;7.82;;;1.98;;
60026;SDS011;45891;53.006;6.512;2022-09-03T19:51:24;11.45;;;2.10;;
60026;SDS011;45891;53.006;6.512;2022-09-03T19:54:22;9.63;;;1.88;;
60026;SDS011;45891;53.006;6.512;2022-09-03T19:57:08;10.93;;;3.88;;
60026;SDS011;45891;53.006;6.512;2022-09-03T19:59:57;12.73;;;4.88;;
60026;SDS011;45891;53.006;6.512;2022-09-03T20:02:45;14.40;;;7.57;;
60026;SDS011;45891;53.006;6.512;2022-09-03T20:05:32;10.77;;;3.70;;
60026;SDS011;45891;53.006;6.512;2022-09-03T20:08:18;9.30;;;2.75;;
60026;SDS011;45891;53.006;6.512;2022-09-03T20:11:06;11.15;;;2.22;;
60026;SDS011;45891;53.006;6.512;2022-09-03T20:13:36;6.72;;;2.20;;
60026;SDS011;45891;53.006;6.512;2022-09-03T20:19:00;18.65;;;15.05;;
60026;SDS011;45891;53.006;6.512;2022-09-03T20:21:58;20.92;;;13.40;;
60026;SDS011;45891;53.006;6.512;2022-09-03T20:25:08;32.60;;;25.67;;
60026;SDS011;45891;53.006;6.512;2022-09-03T20:30:26;10.48;;;2.70;;
60026;SDS011;45891;53.006;6.512;2022-09-03T21:05:53;9.70;;;2.50;;
60026;SDS011;45891;53.006;6.512;2022-09-03T21:11:13;7.50;;;2.65;;
60026;SDS011;45891;53.006;6.512;2022-09-03T21:27:18;10.48;;;3.95;;
60026;SDS011;45891;53.006;6.512;2022-09-03T21:32:24;8.98;;;2.50;;
60026;SDS011;45891;53.006;6.512;2022-09-03T21:40:42;258.88;;;231.27;;
60026;SDS011;45891;53.006;6.512;2022-09-03T21:43:31;381.17;;;339.52;;
60026;SDS011;45891;53.006;6.512;2022-09-03T21:46:12;156.20;;;138.70;;
60026;SDS011;45891;53.006;6.512;2022-09-03T21:54:00;21.50;;;14.00;;
60026;SDS011;45891;53.006;6.512;2022-09-03T22:02:12;11.35;;;6.95;;
60026;SDS011;45891;53.006;6.512;2022-09-03T22:04:51;11.97;;;4.63;;
60026;SDS011;45891;53.006;6.512;2022-09-03T22:13:34;9.98;;;3.92;;
60026;SDS011;45891;53.006;6.512;2022-09-03T22:15:47;10.88;;;3.05;;
60026;SDS011;45891;53.006;6.512;2022-09-03T22:18:26;11.10;;;2.88;;
60026;SDS011;45891;53.006;6.512;2022-09-03T22:23:29;9.98;;;3.35;;
60026;SDS011;45891;53.006;6.512;2022-09-03T22:26:18;9.82;;;2.95;;